Terminal Aerodrome Forecast
Issued by NWS Duluth, MN

Home | Current Version | Previous Version | Text Only | Print | Product List | Glossary On
Versions: 1 2 3 4 5 6 7 8 9 10 11 12 13 14 15 16 17 18 19 20 21 22 23
000
FTUS43 KDLH 290537
TAFDLH
TAF
KDLH 290537Z 2906/3006 29008KT P6SM VCSH SCT025 BKN070
     FM291000 29008KT P6SM VCSH BKN015
     FM291300 29011KT P6SM VCSH OVC008
     FM291700 30013G20KT 6SM -SHRA BR OVC008
     FM292200 30015G22KT P6SM VCSH BKN020
     FM300100 29010KT P6SM BKN025=

USA.gov is the U.S. government's official web portal to all federal, state and local government web resources and services.